createdAt,value
2023-06-11T00:01:25.271Z,49475.81
2023-06-11T00:03:55.160Z,49453.91
2023-06-11T00:06:24.187Z,49499.75
2023-06-11T00:08:54.921Z,49479.81
2023-06-11T00:11:23.220Z,49427.97
2023-06-11T00:13:51.245Z,49439.94
2023-06-11T00:16:18.412Z,49441.94
2023-06-11T00:18:46.356Z,49485.78
2023-06-11T00:21:15.000Z,49511.72
2023-06-11T00:23:41.760Z,49475.81
2023-06-11T00:26:09.281Z,49477.81
2023-06-11T00:28:36.688Z,49461.88
2023-06-11T00:31:06.871Z,49445.94
2023-06-11T00:33:33.794Z,49469.84
2023-06-11T00:36:00.532Z,49475.81
2023-06-11T00:38:27.307Z,49491.78
2023-06-11T00:40:54.133Z,49479.81
2023-06-11T00:43:22.621Z,49475.81
2023-06-11T00:45:52.796Z,49475.81
2023-06-11T00:48:22.858Z,49495.75
2023-06-11T00:50:51.513Z,49475.81
2023-06-11T00:53:19.954Z,49471.84
2023-06-11T00:55:48.265Z,49469.84
2023-06-11T00:58:16.608Z,49473.84
2023-06-11T01:00:47.100Z,49491.78
2023-06-11T01:03:22.446Z,49477.81
2023-06-11T01:05:54.186Z,49465.84
2023-06-11T01:08:23.889Z,49471.84
2023-06-11T01:10:53.280Z,49473.84
2023-06-11T01:13:21.239Z,49491.78
2023-06-11T01:15:48.511Z,49515.69
2023-06-11T01:18:20.553Z,49483.81
2023-06-11T01:21:15.162Z,49507.72
2023-06-11T01:24:04.906Z,49471.84
2023-06-11T01:26:53.759Z,49471.84
2023-06-11T01:29:22.515Z,49459.88
2023-06-11T01:31:51.859Z,49493.75
2023-06-11T01:34:19.197Z,49499.75
2023-06-11T01:36:45.962Z,49497.75
2023-06-11T01:39:13.567Z,49519.69
2023-06-11T01:41:46.337Z,49479.81
2023-06-11T01:44:17.338Z,49499.75
2023-06-11T01:46:44.182Z,49489.78
2023-06-11T01:49:11.073Z,49485.78
2023-06-11T01:51:38.767Z,49479.81
2023-06-11T01:54:06.178Z,49485.78
2023-06-11T01:56:33.948Z,49479.81
2023-06-11T01:59:01.314Z,49491.78
2023-06-11T02:01:30.156Z,49483.81
2023-06-11T02:03:57.440Z,49483.81
2023-06-11T02:06:24.526Z,49491.78
2023-06-11T02:08:51.245Z,49497.75
2023-06-11T02:11:17.909Z,49527.66
2023-06-11T02:13:44.782Z,49509.72
2023-06-11T02:16:11.663Z,49513.69
2023-06-11T02:18:39.268Z,49505.72
2023-06-11T02:21:06.324Z,49511.72
2023-06-11T02:23:33.210Z,49513.69
2023-06-11T02:25:59.884Z,49475.81
2023-06-11T02:28:27.301Z,49525.66
2023-06-11T02:30:53.957Z,49537.63
2023-06-11T02:33:20.985Z,49499.75
2023-06-11T02:35:47.811Z,49503.72
2023-06-11T02:38:14.587Z,49517.69
2023-06-11T02:40:41.247Z,49469.84
2023-06-11T02:43:07.967Z,49519.69
2023-06-11T02:45:36.004Z,49511.72
2023-06-11T02:48:02.929Z,49543.59
2023-06-11T02:50:29.791Z,49517.69
2023-06-11T02:52:57.612Z,49501.75
2023-06-11T02:55:24.460Z,49533.63
2023-06-11T02:57:51.255Z,49529.66
2023-06-11T03:00:18.052Z,49515.69
2023-06-11T03:02:45.279Z,49555.56
2023-06-11T03:05:15.183Z,49543.59
2023-06-11T03:07:42.140Z,49515.69
2023-06-11T03:10:10.274Z,49513.69
2023-06-11T03:12:37.119Z,49525.66
2023-06-11T03:15:04.092Z,49535.63
2023-06-11T03:17:31.084Z,49549.59
2023-06-11T03:19:57.783Z,49519.69
2023-06-11T03:22:24.599Z,49489.78
2023-06-11T03:24:51.331Z,49551.56
2023-06-11T03:27:38.789Z,49523.66
2023-06-11T03:30:07.037Z,49531.63
2023-06-11T03:32:36.361Z,49523.66
2023-06-11T03:35:03.101Z,49501.75
2023-06-11T03:37:31.423Z,49503.72
2023-06-11T03:40:00.245Z,49533.63
2023-06-11T03:42:29.559Z,49499.75
2023-06-11T03:44:56.602Z,49519.69
2023-06-11T03:47:25.483Z,49545.59
2023-06-11T03:49:52.770Z,49483.81
2023-06-11T03:52:20.386Z,49501.75
2023-06-11T03:54:47.272Z,49547.59
2023-06-11T03:57:14.510Z,49531.63
2023-06-11T03:59:41.504Z,49543.59
2023-06-11T04:02:08.344Z,49527.66
2023-06-11T04:04:35.294Z,49529.66
2023-06-11T04:07:02.415Z,49509.72
2023-06-11T04:09:29.186Z,49533.63
2023-06-11T04:11:56.187Z,49551.56
2023-06-11T04:14:22.995Z,49543.59
2023-06-11T04:16:50.566Z,49493.75
2023-06-11T04:19:18.511Z,49595.44
2023-06-11T04:21:46.870Z,49529.66
2023-06-11T04:24:14.211Z,49535.63
2023-06-11T04:26:42.153Z,49519.69
2023-06-11T04:29:10.138Z,49535.63
2023-06-11T04:31:37.079Z,49551.56
2023-06-11T04:34:07.987Z,49529.66
2023-06-11T04:36:39.731Z,49507.72
2023-06-11T04:39:09.055Z,49519.69
2023-06-11T04:41:37.886Z,49523.66
2023-06-11T04:44:06.463Z,49539.63
2023-06-11T04:46:36.103Z,49543.59
2023-06-11T04:49:08.233Z,49539.63
2023-06-11T04:51:35.273Z,49531.63
2023-06-11T04:54:08.801Z,49561.53
2023-06-11T04:56:40.285Z,49519.69
2023-06-11T04:59:09.013Z,49527.66
2023-06-11T05:01:38.545Z,49507.72
2023-06-11T05:04:06.668Z,49523.66
2023-06-11T05:06:35.046Z,49531.63
2023-06-11T05:09:04.478Z,49491.78
2023-06-11T05:11:31.573Z,49495.75
2023-06-11T05:13:58.315Z,49531.63
2023-06-11T05:16:27.415Z,49543.59
2023-06-11T05:18:55.014Z,49543.59
2023-06-11T05:21:22.096Z,49517.69
2023-06-11T05:23:49.932Z,49511.72
2023-06-11T05:26:20.101Z,49527.66
2023-06-11T05:28:48.142Z,49533.63
2023-06-11T05:31:15.471Z,49499.75
2023-06-11T05:33:46.063Z,49499.75
2023-06-11T05:36:13.644Z,49515.69
2023-06-11T05:38:40.847Z,49509.72
2023-06-11T05:41:08.043Z,49517.69
2023-06-11T05:43:35.092Z,49507.72
2023-06-11T05:46:02.395Z,49521.69
2023-06-11T05:48:30.294Z,49503.72
2023-06-11T05:50:57.337Z,49509.72
2023-06-11T05:53:24.784Z,49493.75
2023-06-11T05:55:54.541Z,49523.66
2023-06-11T05:58:23.399Z,49503.72
2023-06-11T06:00:51.277Z,49481.81
2023-06-11T06:03:18.335Z,49491.78
2023-06-11T06:05:45.296Z,49503.72
2023-06-11T06:08:12.632Z,49505.72
2023-06-11T06:10:39.706Z,49515.69
2023-06-11T06:13:06.510Z,49493.75
2023-06-11T06:15:33.411Z,49527.66
2023-06-11T06:18:00.989Z,49491.78
2023-06-11T06:20:36.861Z,49505.72
2023-06-11T06:23:03.755Z,49481.81
2023-06-11T06:25:32.914Z,49493.75
2023-06-11T06:27:59.944Z,49501.75
2023-06-11T06:30:27.006Z,49483.81
2023-06-11T06:32:55.075Z,49491.78
2023-06-11T06:35:24.324Z,49499.75
2023-06-11T06:37:51.096Z,49467.84
2023-06-11T06:40:18.719Z,49481.81
2023-06-11T06:42:45.449Z,49485.78
2023-06-11T06:45:16.869Z,49501.75
2023-06-11T06:47:43.858Z,49499.75
2023-06-11T06:50:11.646Z,49489.78
2023-06-11T06:52:38.814Z,49475.81
2023-06-11T06:55:06.269Z,49465.84
2023-06-11T06:57:33.345Z,49459.88
2023-06-11T07:00:01.539Z,49473.84
2023-06-11T07:02:28.995Z,49495.75
2023-06-11T07:04:56.180Z,49487.78
2023-06-11T07:07:25.653Z,49501.75
2023-06-11T07:09:53.250Z,49469.84
2023-06-11T07:12:21.568Z,49489.78
2023-06-11T07:14:49.335Z,49463.88
2023-06-11T07:17:16.728Z,49465.84
2023-06-11T07:19:43.690Z,49507.72
2023-06-11T07:22:10.367Z,49477.81
2023-06-11T07:24:39.032Z,49449.91
2023-06-11T07:27:07.092Z,49463.88
2023-06-11T07:29:34.140Z,49435.97
2023-06-11T07:32:01.209Z,49471.84
2023-06-11T07:34:28.168Z,49459.88
2023-06-11T07:36:55.096Z,49491.78
2023-06-11T07:39:21.950Z,49455.88
2023-06-11T07:41:48.646Z,49471.84
2023-06-11T07:44:16.990Z,49455.88
2023-06-11T07:46:45.752Z,49441.94
2023-06-11T07:49:12.636Z,49441.94
2023-06-11T07:51:39.586Z,49439.94
2023-06-11T07:54:09.411Z,49457.88
2023-06-11T07:56:36.232Z,49463.88
2023-06-11T07:59:02.925Z,49420.00
2023-06-11T08:01:30.110Z,49406.06
2023-06-11T08:03:56.935Z,49479.81
2023-06-11T08:06:23.758Z,49447.91
2023-06-11T08:08:51.789Z,49439.94
2023-06-11T08:11:18.565Z,49447.91
2023-06-11T08:13:45.378Z,49426.00
2023-06-11T08:16:12.223Z,49459.88
2023-06-11T08:18:38.960Z,49445.94
2023-06-11T08:21:06.727Z,49431.97
2023-06-11T08:23:37.163Z,49487.78
2023-06-11T08:26:04.114Z,49463.88
2023-06-11T08:28:31.345Z,49439.94
2023-06-11T08:30:58.508Z,49418.00
2023-06-11T08:33:25.551Z,49439.94
2023-06-11T08:35:52.429Z,49435.97
2023-06-11T08:38:19.157Z,49451.91
2023-06-11T08:40:46.383Z,49427.97
2023-06-11T08:43:13.510Z,49443.94
2023-06-11T08:45:40.448Z,49427.97
2023-06-11T08:48:10.029Z,49433.97
2023-06-11T08:50:37.331Z,49420.00
2023-06-11T08:53:06.076Z,49431.97
2023-06-11T08:55:33.176Z,49429.97
2023-06-11T08:57:59.992Z,49427.97
2023-06-11T09:00:26.945Z,49412.03
2023-06-11T09:02:54.105Z,49386.13
2023-06-11T09:05:21.052Z,49445.94
2023-06-11T09:07:52.339Z,49418.00
2023-06-11T09:10:20.193Z,49420.00
2023-06-11T09:12:47.708Z,49410.03
2023-06-11T09:15:14.685Z,49404.06
2023-06-11T09:17:44.643Z,49408.06
2023-06-11T09:20:13.954Z,49416.03
2023-06-11T09:22:43.091Z,49420.00
2023-06-11T09:25:18.529Z,49437.94
2023-06-11T09:27:47.891Z,49404.06
2023-06-11T09:30:18.520Z,49433.97
2023-06-11T09:32:50.604Z,49408.06
2023-06-11T09:35:21.312Z,49388.13
2023-06-11T09:37:53.529Z,49400.06
2023-06-11T09:40:24.318Z,49386.13
2023-06-11T09:42:51.790Z,49416.03
2023-06-11T09:45:20.848Z,49394.09
2023-06-11T09:47:48.967Z,49376.16
2023-06-11T09:50:18.012Z,49408.06
2023-06-11T09:52:46.402Z,49366.19
2023-06-11T09:55:14.265Z,49360.22
2023-06-11T09:57:42.048Z,49386.13
2023-06-11T10:00:14.054Z,49376.16
2023-06-11T10:02:43.050Z,49376.16
2023-06-11T10:05:11.449Z,49398.09
2023-06-11T10:07:48.349Z,49390.09
2023-06-11T10:10:23.277Z,49420.00
2023-06-11T10:12:53.961Z,49388.13
2023-06-11T10:15:25.245Z,49408.06
2023-06-11T10:17:55.695Z,49388.13
2023-06-11T10:20:29.339Z,49372.16
2023-06-11T10:23:10.514Z,49384.13
2023-06-11T10:25:39.704Z,49400.06
2023-06-11T10:28:07.226Z,49352.22
2023-06-11T10:30:34.222Z,49396.09
2023-06-11T10:33:01.573Z,49392.09
2023-06-11T10:35:33.637Z,49376.16
2023-06-11T10:38:16.288Z,49390.09
2023-06-11T10:40:43.122Z,49404.06
2023-06-11T10:43:18.267Z,49364.19
2023-06-11T10:45:47.751Z,49360.22
2023-06-11T10:48:27.789Z,49384.13
2023-06-11T10:51:00.818Z,49384.13
2023-06-11T10:53:37.054Z,49348.25
2023-06-11T10:56:03.937Z,49386.13
2023-06-11T10:58:30.859Z,49384.13
2023-06-11T11:00:57.721Z,49384.13
2023-06-11T11:03:25.784Z,49376.16
2023-06-11T11:05:53.526Z,49340.28
2023-06-11T11:08:23.931Z,49360.22
2023-06-11T11:11:01.037Z,49336.28
2023-06-11T11:13:29.949Z,49314.34
2023-06-11T11:15:57.342Z,49372.16
2023-06-11T11:18:24.359Z,49384.13
2023-06-11T11:20:54.751Z,49360.22
2023-06-11T11:23:21.650Z,49330.31
2023-06-11T11:25:52.270Z,49384.13
2023-06-11T11:28:19.003Z,49342.28
2023-06-11T11:30:45.653Z,49366.19
2023-06-11T11:33:12.715Z,49352.22
2023-06-11T11:35:46.803Z,49324.31
2023-06-11T11:38:13.585Z,49338.28
2023-06-11T11:40:40.464Z,49344.25
2023-06-11T11:43:14.125Z,49352.22
2023-06-11T11:45:49.637Z,49354.22
2023-06-11T11:48:17.559Z,49378.16
2023-06-11T11:50:50.543Z,49380.13
2023-06-11T11:53:19.898Z,49332.31
2023-06-11T11:58:17.840Z,49340.28
2023-06-11T12:01:06.055Z,49352.22
2023-06-11T12:03:33.114Z,49360.22
2023-06-11T12:06:06.122Z,49352.22
2023-06-11T12:08:34.759Z,49346.25
2023-06-11T12:11:04.992Z,49322.34
2023-06-11T12:13:31.761Z,49326.31
2023-06-11T12:16:01.952Z,49322.34
2023-06-11T12:18:30.817Z,49342.28
2023-06-11T12:20:57.706Z,49322.34
2023-06-11T12:23:25.301Z,49344.25
2023-06-11T12:25:52.072Z,49364.19
2023-06-11T12:28:19.361Z,49336.28
2023-06-11T12:30:47.128Z,49310.38
2023-06-11T12:33:14.220Z,49300.41
2023-06-11T12:35:41.287Z,49316.34
2023-06-11T12:38:08.176Z,49342.28
2023-06-11T12:40:34.951Z,49316.34
2023-06-11T12:43:01.958Z,49336.28
2023-06-11T12:45:31.631Z,49302.41
2023-06-11T12:47:58.709Z,49320.34
2023-06-11T12:50:27.525Z,49324.31
2023-06-11T12:52:55.066Z,49332.31
2023-06-11T12:55:22.058Z,49346.25
2023-06-11T12:57:48.860Z,49344.25
2023-06-11T13:00:16.144Z,49344.25
2023-06-11T13:02:43.308Z,49308.38
2023-06-11T13:05:10.166Z,49306.38
2023-06-11T13:07:37.076Z,49304.41
2023-06-11T13:10:05.029Z,49324.31
2023-06-11T13:12:33.092Z,49342.28
2023-06-11T13:15:00.199Z,49324.31
2023-06-11T13:17:27.143Z,49312.38
2023-06-11T13:19:56.989Z,49356.22
2023-06-11T13:22:24.116Z,49360.22
2023-06-11T13:24:50.837Z,49328.31
2023-06-11T13:27:17.633Z,49338.28
2023-06-11T13:29:44.488Z,49292.44
2023-06-11T13:32:11.215Z,49312.38
2023-06-11T13:34:38.395Z,49294.44
2023-06-11T13:37:05.579Z,49344.25
2023-06-11T13:39:33.891Z,49330.31
2023-06-11T13:42:00.947Z,49328.31
2023-06-11T13:44:27.809Z,49302.41
2023-06-11T13:46:54.862Z,49314.34
2023-06-11T13:49:21.996Z,49288.44
2023-06-11T13:51:48.872Z,49292.44
2023-06-11T13:54:15.578Z,49320.34
2023-06-11T13:56:42.421Z,49360.22
2023-06-11T13:59:09.076Z,49334.28
2023-06-11T14:01:36.173Z,49328.31
2023-06-11T14:04:03.064Z,49324.31
2023-06-11T14:06:33.454Z,49300.41
2023-06-11T14:09:00.659Z,49324.31
2023-06-11T14:11:27.249Z,49316.34
2023-06-11T14:13:54.033Z,49300.41
2023-06-11T14:16:20.857Z,49294.44
2023-06-11T14:18:47.578Z,49294.44
2023-06-11T14:21:14.204Z,49294.44
2023-06-11T14:23:41.051Z,49296.41
2023-06-11T14:26:07.734Z,49276.50
2023-06-11T14:28:34.443Z,49272.50
2023-06-11T14:31:01.276Z,49292.44
2023-06-11T14:33:27.967Z,49288.44
2023-06-11T14:35:54.819Z,49296.41
2023-06-11T14:38:21.650Z,49312.38
2023-06-11T14:40:48.591Z,49296.41
2023-06-11T14:43:15.315Z,49296.41
2023-06-11T14:45:42.109Z,49334.28
2023-06-11T14:48:08.941Z,49274.50
2023-06-11T14:50:35.941Z,49272.50
2023-06-11T14:53:02.674Z,49320.34
2023-06-11T14:55:29.449Z,49304.41
2023-06-11T14:57:56.230Z,49298.41
2023-06-11T15:00:23.016Z,49272.50
2023-06-11T15:02:49.826Z,49328.31
2023-06-11T15:05:17.086Z,49328.31
2023-06-11T15:07:43.826Z,49328.31
2023-06-11T15:10:11.750Z,49312.38
2023-06-11T15:12:38.852Z,49292.44
2023-06-11T15:15:06.405Z,49298.41
2023-06-11T15:17:37.139Z,49280.47
2023-06-11T15:20:08.033Z,49260.53
2023-06-11T15:22:40.138Z,49300.41
2023-06-11T15:25:10.171Z,49300.41
2023-06-11T15:27:36.968Z,49236.63
2023-06-11T15:30:05.002Z,49274.50
2023-06-11T15:32:31.985Z,49248.59
2023-06-11T15:34:58.765Z,49292.44
2023-06-11T15:37:25.553Z,49328.31
2023-06-11T15:39:52.951Z,49340.28
2023-06-11T15:42:20.181Z,49378.16
2023-06-11T15:44:49.659Z,49290.44
2023-06-11T15:47:17.056Z,49336.28
2023-06-11T15:49:43.857Z,49272.50
2023-06-11T15:52:10.666Z,49268.50
2023-06-11T15:54:37.600Z,49292.44
2023-06-11T15:57:05.014Z,49264.53
2023-06-11T15:59:32.644Z,49270.50
2023-06-11T16:01:59.724Z,49228.66
2023-06-11T16:04:26.949Z,49292.44
2023-06-11T16:06:53.967Z,49262.53
2023-06-11T16:09:20.694Z,49280.47
2023-06-11T16:11:47.341Z,49276.50
2023-06-11T16:14:16.117Z,49266.53
2023-06-11T16:16:43.529Z,49236.63
2023-06-11T16:19:10.427Z,49264.53
2023-06-11T16:21:38.129Z,49254.56
2023-06-11T16:24:06.085Z,49304.41
2023-06-11T16:26:33.117Z,49264.53
2023-06-11T16:29:00.498Z,49268.50
2023-06-11T16:31:27.253Z,49272.50
2023-06-11T16:33:59.052Z,49256.56
2023-06-11T16:36:27.373Z,49254.56
2023-06-11T16:38:54.135Z,49268.50
2023-06-11T16:41:22.030Z,49308.38
2023-06-11T16:43:52.397Z,49270.50
2023-06-11T16:46:20.291Z,49280.47
2023-06-11T16:48:47.628Z,49236.63
2023-06-11T16:51:14.724Z,49278.47
2023-06-11T16:53:41.604Z,49264.53
2023-06-11T16:56:08.483Z,49268.50
2023-06-11T16:58:35.074Z,49270.50
2023-06-11T17:01:01.904Z,49276.50
2023-06-11T17:03:28.540Z,49280.47
2023-06-11T17:05:55.370Z,49282.47
2023-06-11T17:08:22.016Z,49306.38
2023-06-11T17:10:48.814Z,49300.41
2023-06-11T17:13:15.464Z,49280.47
2023-06-11T17:15:42.142Z,49286.44
2023-06-11T17:18:08.850Z,49270.50
2023-06-11T17:20:36.691Z,49284.47
2023-06-11T17:23:03.765Z,49288.44
2023-06-11T17:25:30.741Z,49306.38
2023-06-11T17:27:57.394Z,49278.47
2023-06-11T17:30:24.236Z,49296.41
2023-06-11T17:32:50.933Z,49292.44
2023-06-11T17:35:17.734Z,49308.38
2023-06-11T17:37:45.843Z,49290.44
2023-06-11T17:40:16.554Z,49292.44
2023-06-11T17:42:44.964Z,49296.41
2023-06-11T17:45:12.339Z,49298.41
2023-06-11T17:47:39.185Z,49300.41
2023-06-11T17:50:06.662Z,49298.41
2023-06-11T17:52:33.757Z,49266.53
2023-06-11T17:55:00.520Z,49304.41
2023-06-11T17:57:27.409Z,49294.44
2023-06-11T17:59:54.055Z,49290.44
2023-06-11T18:02:20.864Z,49288.44
2023-06-11T18:04:47.573Z,49314.34
2023-06-11T18:07:14.259Z,49336.28
2023-06-11T18:09:40.982Z,49286.44
2023-06-11T18:12:08.788Z,49328.31
2023-06-11T18:14:35.580Z,49348.25
2023-06-11T18:17:02.410Z,49324.31
2023-06-11T18:19:29.130Z,49332.31
2023-06-11T18:21:55.973Z,49320.34
2023-06-11T18:24:23.471Z,49302.41
2023-06-11T18:26:50.300Z,49342.28
2023-06-11T18:29:17.060Z,49362.19
2023-06-11T18:31:43.856Z,49364.19
2023-06-11T18:34:10.615Z,49344.25
2023-06-11T18:36:37.377Z,49346.25
2023-06-11T18:39:04.248Z,49404.06
2023-06-11T18:41:31.322Z,49370.19
2023-06-11T18:43:58.049Z,49384.13
2023-06-11T18:46:25.938Z,49364.19
2023-06-11T18:48:52.875Z,49376.16
2023-06-11T18:51:19.870Z,49380.13
2023-06-11T18:53:47.342Z,49388.13
2023-06-11T18:56:14.214Z,49374.16
2023-06-11T18:58:41.097Z,49358.22
2023-06-11T19:01:07.878Z,49356.22
2023-06-11T19:03:38.680Z,49384.13
2023-06-11T19:06:06.814Z,49396.09
2023-06-11T19:08:33.541Z,49396.09
2023-06-11T19:11:00.341Z,49404.06
2023-06-11T19:13:27.028Z,49404.06
2023-06-11T19:15:55.075Z,49382.13
2023-06-11T19:18:22.081Z,49382.13
2023-06-11T19:20:48.906Z,49368.19
2023-06-11T19:23:15.823Z,49376.16
2023-06-11T19:25:42.514Z,49380.13
2023-06-11T19:28:09.273Z,49412.03
2023-06-11T19:30:35.985Z,49424.00
2023-06-11T19:33:02.854Z,49439.94
2023-06-11T19:35:29.878Z,49396.09
2023-06-11T19:37:56.662Z,49396.09
2023-06-11T19:40:23.399Z,49404.06
2023-06-11T19:42:50.104Z,49388.13
2023-06-11T19:45:19.474Z,49404.06
2023-06-11T19:47:46.776Z,49386.13
2023-06-11T19:50:14.025Z,49412.03
2023-06-11T19:52:40.954Z,49433.97
2023-06-11T19:55:08.089Z,49404.06
2023-06-11T19:57:34.859Z,49408.06
2023-06-11T20:00:01.823Z,49388.13
2023-06-11T20:02:39.239Z,49368.19
2023-06-11T20:05:06.633Z,49394.09
2023-06-11T20:07:33.453Z,49418.00
2023-06-11T20:10:00.299Z,49408.06
2023-06-11T20:12:27.036Z,49424.00
2023-06-11T20:14:53.768Z,49424.00
2023-06-11T20:17:20.664Z,49396.09
2023-06-11T20:19:49.277Z,49416.03
2023-06-11T20:22:16.038Z,49427.97
2023-06-11T20:24:42.870Z,49410.03
2023-06-11T20:27:09.554Z,49410.03
2023-06-11T20:29:36.841Z,49394.09
2023-06-11T20:32:03.865Z,49424.00
2023-06-11T20:34:30.612Z,49418.00
2023-06-11T20:36:57.410Z,49410.03
2023-06-11T20:39:24.110Z,49420.00
2023-06-11T20:41:50.844Z,49404.06
2023-06-11T20:44:17.512Z,49429.97
2023-06-11T20:46:44.333Z,49416.03
2023-06-11T20:49:11.115Z,49416.03
2023-06-11T20:51:39.277Z,49416.03
2023-06-11T20:54:06.186Z,49447.91
2023-06-11T20:56:32.850Z,49447.91
2023-06-11T20:58:59.592Z,49404.06
2023-06-11T21:01:26.474Z,49408.06
2023-06-11T21:03:53.216Z,49410.03
2023-06-11T21:06:19.933Z,49408.06
2023-06-11T21:08:46.629Z,49426.00
2023-06-11T21:11:14.074Z,49404.06
2023-06-11T21:13:40.978Z,49416.03
2023-06-11T21:16:07.704Z,49429.97
2023-06-11T21:18:34.535Z,49427.97
2023-06-11T21:21:01.378Z,49424.00
2023-06-11T21:23:28.137Z,49451.91
2023-06-11T21:25:54.942Z,49439.94
2023-06-11T21:28:21.720Z,49420.00
2023-06-11T21:30:48.588Z,49404.06
2023-06-11T21:33:15.389Z,49455.88
2023-06-11T21:35:42.215Z,49431.97
2023-06-11T21:38:08.992Z,49433.97
2023-06-11T21:40:35.785Z,49429.97
2023-06-11T21:43:02.501Z,49447.91
2023-06-11T21:45:29.834Z,49459.88
2023-06-11T21:47:56.545Z,49457.88
2023-06-11T21:50:23.452Z,49427.97
2023-06-11T21:52:50.794Z,49447.91
2023-06-11T21:55:18.057Z,49447.91
2023-06-11T21:57:45.032Z,49459.88
2023-06-11T22:00:14.712Z,49410.03
2023-06-11T22:02:42.390Z,49429.97
2023-06-11T22:05:10.087Z,49435.97
2023-06-11T22:07:37.207Z,49451.91
2023-06-11T22:10:05.223Z,49451.91
2023-06-11T22:12:41.274Z,49404.06
2023-06-11T22:15:09.092Z,49439.94
2023-06-11T22:17:36.018Z,49467.84
2023-06-11T22:20:08.225Z,49431.97
2023-06-11T22:22:43.825Z,49467.84
2023-06-11T22:25:12.023Z,49451.91
2023-06-11T22:27:43.257Z,49477.81
2023-06-11T22:30:11.872Z,49435.97
2023-06-11T22:32:38.983Z,49445.94
2023-06-11T22:35:06.099Z,49483.81
2023-06-11T22:37:35.119Z,49418.00
2023-06-11T22:40:02.631Z,49443.94
2023-06-11T22:42:29.563Z,49447.91
2023-06-11T22:44:56.305Z,49483.81
2023-06-11T22:47:23.030Z,49426.00
2023-06-11T22:49:49.771Z,49461.88
2023-06-11T22:52:19.276Z,49445.94
2023-06-11T22:54:46.832Z,49477.81
2023-06-11T22:57:13.536Z,49439.94
2023-06-11T22:59:40.664Z,49424.00
2023-06-11T23:02:07.909Z,49473.84
2023-06-11T23:04:34.655Z,49475.81
2023-06-11T23:07:03.521Z,49459.88
2023-06-11T23:09:30.941Z,49473.84
2023-06-11T23:11:57.905Z,49453.91
2023-06-11T23:14:24.729Z,49473.84
2023-06-11T23:16:51.606Z,49465.84
2023-06-11T23:19:19.519Z,49453.91
2023-06-11T23:21:46.263Z,49475.81
2023-06-11T23:24:13.917Z,49459.88
2023-06-11T23:26:45.114Z,49485.78
2023-06-11T23:29:16.541Z,49477.81
2023-06-11T23:31:43.670Z,49469.84
2023-06-11T23:34:11.284Z,49459.88
2023-06-11T23:36:41.000Z,49499.75
2023-06-11T23:39:09.620Z,49489.78
2023-06-11T23:41:37.408Z,49451.91
2023-06-11T23:44:04.348Z,49463.88
2023-06-11T23:46:32.306Z,49473.84
2023-06-11T23:48:59.065Z,49445.94
2023-06-11T23:51:25.922Z,49467.84
2023-06-11T23:53:53.657Z,49463.88
2023-06-11T23:56:20.565Z,49459.88
2023-06-11T23:58:47.273Z,49487.78
